Latest Coastal Weather Observations for Cooktown

IDQ60701

Issued at 9:12 pm EST Monday 22 December 2014 (issued every 10 minutes, with the page automatically refreshed every 10 minutes)

About coastal observations | Map of coastal stations | Coastal observations for QLD | Marine services | Other Formats
Station Details ID: 031209 Name: COOKTOWN AIRPORT Lat: -15.45 Lon: 145.19 Height: 4.8 m
Data from the previous 72 hours. | See also: Recent months at Cooktown
Date/Time
EST
Temp

°C
Wind Pressure Rain
since 9am
mm
Weather Cloud Vis
km
Sea
Height
m
Swell
Dir
 
Speed
knots
Gust
knots
hPa Trend Height
m
Period
s
Dir
22/09:00pm 27.1 ESE 11 16 1010.7 - 6.6 - Cloudy 10 - - - -
22/08:30pm 27.2 ESE 11 16 1010.6 - 6.6 - Partly cloudy 10 - - - -
22/08:00pm 26.4 ESE 8 11 1010.5 - 6.6 - Partly cloudy 10 - - - -
22/07:54pm 26.0 ESE 8 12 1010.5 - 6.6 - Partly cloudy 10 - - - -
22/07:36pm 26.3 E 9 14 1010.5 - 6.6 - Partly cloudy 5 - - - -
22/07:30pm 26.9 E 8 12 1010.4 - 6.6 - Cloudy 10 - - - -
22/07:00pm 26.7 SE 8 13 1010.4 - 6.6 - Partly cloudy 10 - - - -
22/06:30pm 27.2 SE 11 15 1009.8 - 6.6 - Partly cloudy 10 - - - -
22/06:00pm 28.4 SE 13 21 1009.5 - 6.6 - Cloudy 10 - - - -
22/05:30pm 28.4 SE 12 19 1009.3 - 6.6 - Partly cloudy 10 - - - -
22/05:00pm 29.2 ESE 13 19 1009.0 - 6.6 - Partly cloudy 10 - - - -
22/04:30pm 30.3 E 15 20 1008.7 - 6.6 - Partly cloudy 10 - - - -
22/04:00pm 31.4 ESE 14 20 1008.6 - 6.6 - Partly cloudy 10 - - - -
22/03:30pm 30.8 ESE 15 21 1008.5 - 6.4 - Partly cloudy 10 - - - -
22/03:00pm 30.3 E 15 21 1008.7 F 6.4 Fine Partly cloudy 40 - - - -
22/02:30pm 29.8 E 16 21 1009.5 - 6.4 - Partly cloudy 10 - - - -
22/02:00pm 31.0 E 17 22 1009.7 - 6.2 - Partly cloudy 10 - - - -
22/01:30pm 29.7 ESE 12 20 1010.0 - 6.0 - Partly cloudy 10 - - - -
22/01:21pm 29.0 ESE 9 15 1010.1 - 6.0 - Partly cloudy 10 - - - -
22/01:08pm 27.4 ESE 13 22 1010.2 - 5.8 - Partly cloudy 5 - - - -
22/01:00pm 29.2 ESE 14 19 1010.2 - 5.8 - Partly cloudy 10 - - - -
22/12:30pm 30.3 ESE 14 19 1010.4 - 5.6 - Partly cloudy 10 - - - -
22/12:00pm 32.0 E 14 20 1010.5 - 5.4 - Cloudy 10 - - - -
22/11:30am 31.1 E 15 20 1011.0 - 4.8 - Partly cloudy 10 - - - -
22/11:00am 30.5 ESE 14 18 1011.2 - 4.2 - Partly cloudy 10 - - - -
22/10:30am 30.8 ESE 9 12 1011.4 - 3.4 - Partly cloudy 10 - - - -
22/10:00am 27.4 SE 6 9 1011.5 - 2.4 - Cloudy 10 - - - -
22/09:30am 26.3 SSE 9 13 1011.4 - 1.2 - Partly cloudy 10 - - - -
22/09:17am 26.5 SE 10 14 1011.4 - 0.8 - Partly cloudy 10 - - - -
22/09:02am 26.1 SSE 8 14 1011.3 - 0.0 - Partly cloudy 10 - - - -
22/09:00am 26.5 SSE 6 14 1011.2 R 8.4 Fine Mostly cloudy 30 - - - -
22/08:30am 25.3 S 4 6 1011.2 - 6.8 - Partly cloudy 10 - - - -
22/08:10am 24.3 SSW 4 5 1011.1 - 5.2 - Partly cloudy 10 - - - -
22/08:06am 24.5 S 4 7 1011.1 - 4.8 - Partly cloudy 10 - - - -
22/08:00am 24.6 SE 6 8 1011.1 - 4.4 - Partly cloudy 5 - - - -
22/07:37am 24.7 ESE 7 14 1011.2 - 3.4 - Partly cloudy 2 - - - -
22/07:30am 25.0 SSE 5 7 1011.0 - 3.2 - Partly cloudy 5 - - - -
22/07:24am 24.9 S 6 8 1010.7 - 3.2 - Partly cloudy 10 - - - -
22/07:10am 24.5 SSW 4 7 1010.5 - 2.8 - Partly cloudy 10 - - - -
22/07:00am 24.5 SSW 2 4 1010.4 - 2.6 - Partly cloudy 10 - - - -
22/06:30am 24.3 SE 5 6 1010.2 - 1.6 - Partly cloudy 10 - - - -
22/06:20am 24.0 ESE 5 10 1010.1 - 1.4 - Partly cloudy 10 - - - -
22/06:03am 24.2 E 16 26 1010.1 - 0.6 - Partly cloudy 1 - - - -
22/06:00am 24.3 E 20 26 1010.1 - 0.6 - Cloudy 1 - - - -
22/05:55am 24.8 E 15 25 1010.0 - 0.2 - Partly cloudy 2 - - - -
22/05:52am 25.5 E 11 24 1010.0 - 0.0 - Partly cloudy 5 - - - -
22/05:30am 27.7 ESE 8 11 1009.3 - 0.0 - Partly cloudy 10 - - - -
22/05:00am 27.7 ESE 10 15 1008.9 - 0.0 - Partly cloudy 10 - - - -
22/04:30am 27.7 E 10 14 1008.7 - 0.0 - Partly cloudy 10 - - - -
22/04:00am 27.8 ESE 13 19 1008.6 - 0.0 - Partly cloudy 10 - - - -
22/03:30am 27.5 E 10 14 1008.7 - 0.0 - Partly cloudy 10 - - - -
22/03:11am 27.2 ESE 9 13 1008.9 - 0.0 - Partly cloudy 10 - - - -
22/03:00am 27.4 ESE 9 14 1008.6 - 0.0 - Cloudy 10 - - - -
22/02:44am 27.3 SE 7 11 1008.8 - 0.0 - Partly cloudy 10 - - - -
22/02:30am 27.6 ESE 8 15 1008.9 - 0.0 - Partly cloudy 10 - - - -
22/02:00am 27.9 ESE 10 14 1009.1 - 0.0 - Partly cloudy 10 - - - -
22/01:30am 27.9 ESE 9 11 1009.5 - 0.0 - Partly cloudy 10 - - - -
22/01:00am 27.8 ESE 10 14 1010.0 - 0.0 - Partly cloudy 10 - - - -
22/12:30am 27.9 ESE 11 15 1010.5 - 0.0 - Partly cloudy 10 - - - -
22/12:00am 28.0 ESE 11 15 1010.8 - 0.0 - Partly cloudy 10 - - - -
 
Date/Time
EST
Temp

°C
Wind Pressure Rain
since 9am
mm
Weather Cloud Vis
km
Sea
Height
m
Swell
Dir
 
Speed
knots
Gust
knots
hPa Trend Height
m
Period
s
Dir
21/11:30pm 27.9 ESE 11 17 1010.8 - 0.0 - Partly cloudy 10 - - - -
21/11:00pm 28.1 ESE 11 15 1011.0 - 0.0 - Partly cloudy 10 - - - -
21/10:30pm 28.1 ESE 9 14 1011.0 - 0.0 - Partly cloudy 10 - - - -
21/10:00pm 28.2 ESE 9 15 1011.0 - 0.0 - Partly cloudy 10 - - - -
21/09:30pm 28.2 E 12 16 1010.5 - 0.0 - Partly cloudy 10 - - - -
21/09:00pm 28.3 ESE 10 13 1010.4 - 0.0 - Cloudy 10 - - - -
21/08:36pm 28.3 ESE 10 15 1010.4 - 0.0 - Partly cloudy 10 - - - -
21/08:30pm 28.2 E 10 13 1010.4 - 0.0 - Partly cloudy 10 - - - -
21/08:07pm 28.2 E 11 16 1010.1 - 0.0 - Partly cloudy 10 - - - -
21/08:00pm 28.1 E 10 14 1010.1 - 0.0 - Partly cloudy 10 - - - -
21/07:30pm 27.9 E 11 15 1010.0 - 0.0 - Partly cloudy 10 - - - -
21/07:17pm 27.7 E 10 15 1009.7 - 0.0 - Partly cloudy 10 - - - -
21/07:00pm 28.0 E 12 17 1009.5 - 0.0 - Partly cloudy 10 - - - -
21/06:49pm 28.4 E 12 16 1009.5 - 0.0 - Partly cloudy 10 - - - -
21/06:30pm 28.3 E 10 15 1009.3 - 0.0 - Partly cloudy 10 - - - -
21/06:00pm 28.6 E 12 17 1008.9 - 0.0 - Cloudy 10 - - - -
21/05:30pm 29.3 ESE 14 19 1008.9 - 0.0 - Partly cloudy 10 - - - -
21/05:00pm 29.9 ESE 14 18 1009.0 - 0.0 - Partly cloudy 10 - - - -
21/04:30pm 30.8 ESE 14 19 1008.9 - 0.0 - Partly cloudy 10 - - - -
21/04:00pm 31.5 E 13 18 1009.0 - 0.0 - - 10 - - - -
21/03:30pm 32.1 E 13 17 1009.1 - 0.0 - Partly cloudy 10 - - - -
21/03:00pm 31.5 E 13 21 1009.3 - 0.0 - - 10 - - - -
21/02:30pm 31.7 E 13 19 1009.5 - 0.0 - - 10 - - - -
21/02:00pm 31.6 E 14 17 1009.8 - 0.0 - - 10 - - - -
21/01:30pm 31.8 E 14 18 1010.2 - 0.0 - - 10 - - - -
21/01:00pm 32.2 E 15 18 1010.5 - 0.0 - - 10 - - - -
21/12:30pm 33.0 E 12 16 1010.7 - 0.0 - - 10 - - - -
21/12:00pm 32.5 E 13 18 1011.0 - 0.0 - - 10 - - - -
21/11:30am 32.4 E 12 17 1011.5 - 0.0 - Partly cloudy 10 - - - -
21/11:00am 31.2 E 12 17 1011.8 - 0.0 - Partly cloudy 10 - - - -
21/10:30am 31.8 E 14 18 1011.8 - 0.0 - Partly cloudy 10 - - - -
21/10:00am 32.3 E 13 17 1011.8 - 0.0 - Partly cloudy 10 - - - -
21/09:30am 31.8 E 14 19 1011.8 - 0.0 - Partly cloudy 10 - - - -
21/09:00am 31.1 E 14 18 1011.5 - 0.0 - Cloudy 10 - - - -
21/08:30am 30.1 ESE 11 18 1011.6 - 0.0 - Partly cloudy 10 - - - -
21/08:00am 29.6 ESE 10 14 1011.4 - 0.0 - Partly cloudy 10 - - - -
21/07:30am 30.0 E 13 16 1011.0 - 0.0 - - 10 - - - -
21/07:00am 29.5 ESE 9 11 1010.8 - 0.0 - Partly cloudy 10 - - - -
21/06:30am 28.1 ESE 9 14 1010.5 - 0.0 - Partly cloudy 10 - - - -
21/06:00am 27.8 E 9 12 1010.0 - 0.0 - Cloudy 10 - - - -
21/05:30am 27.3 E 8 13 1009.7 - 0.0 - Partly cloudy 10 - - - -
21/05:00am 27.2 E 9 11 1009.3 - 0.0 - Partly cloudy 10 - - - -
21/04:30am 27.4 E 8 12 1009.1 - 0.0 - Partly cloudy 10 - - - -
21/04:00am 27.3 ESE 7 9 1009.0 - 0.0 - Partly cloudy 10 - - - -
21/03:30am 27.4 E 9 12 1009.1 - 0.0 - Partly cloudy 10 - - - -
21/03:00am 27.7 ESE 7 11 1009.2 - 0.0 - Partly cloudy 10 - - - -
21/02:30am 27.3 ESE 7 10 1009.3 - 0.0 - Partly cloudy 10 - - - -
21/02:00am 27.1 E 6 8 1009.4 - 0.0 - Partly cloudy 10 - - - -
21/01:30am 27.8 ESE 8 11 1009.5 - 0.0 - Partly cloudy 10 - - - -
21/01:00am 27.5 E 8 11 1009.8 - 0.0 - Partly cloudy 10 - - - -
21/12:30am 27.4 ESE 6 10 1009.9 - 0.0 - Partly cloudy 10 - - - -
21/12:00am 27.6 ESE 8 11 1010.0 - 0.0 - Cloudy 10 - - - -
 
Date/Time
EST
Temp

°C
Wind Pressure Rain
since 9am
mm
Weather Cloud Vis
km
Sea
Height
m
Swell
Dir
 
Speed
knots
Gust
knots
hPa Trend Height
m
Period
s
Dir
20/11:30pm 27.5 E 8 12 1010.4 - 0.0 - - 10 - - - -
20/11:00pm 27.8 ESE 8 11 1010.6 - 0.0 - - 10 - - - -
20/10:30pm 27.9 ESE 9 14 1010.7 - 0.0 - Partly cloudy 10 - - - -
20/10:00pm 28.0 ESE 9 14 1010.4 - 0.0 - Partly cloudy 10 - - - -
20/09:30pm 28.0 ESE 9 15 1010.3 - 0.0 - Partly cloudy 10 - - - -
20/09:00pm 28.1 E 10 14 1010.0 - 0.0 - Cloudy 10 - - - -
20/08:30pm 28.0 E 10 13 1009.8 - 0.0 - - 10 - - - -
20/08:00pm 28.1 E 11 15 1009.6 - 0.0 - Partly cloudy 10 - - - -
20/07:30pm 28.3 E 11 14 1009.4 - 0.0 - - 10 - - - -
20/07:00pm 28.4 ESE 10 15 1009.2 - 0.0 - - 10 - - - -
20/06:30pm 28.6 E 12 16 1009.0 - 0.0 - Partly cloudy 10 - - - -
20/06:00pm 28.8 E 13 18 1008.5 - 0.0 - - 10 - - - -
20/05:30pm 29.1 E 14 19 1008.6 - 0.0 - - 10 - - - -
20/05:00pm 29.3 E 15 20 1008.2 - 0.0 - - 10 - - - -
20/04:30pm 30.4 E 14 20 1007.9 - 0.0 - - 10 - - - -
20/04:00pm 30.5 E 17 20 1007.7 - 0.0 - - 10 - - - -
20/03:30pm 30.6 E 15 21 1007.7 - 0.0 - - 10 - - - -
20/03:00pm 31.6 E 14 20 1008.0 - 0.0 - - 10 - - - -
20/02:30pm 30.8 E 13 18 1008.3 - 0.0 - - 10 - - - -
20/02:00pm 31.8 E 13 19 1008.5 - 0.0 - - 10 - - - -
20/01:30pm 31.7 E 12 17 1008.8 - 0.0 - - 10 - - - -
20/01:00pm 31.6 E 12 17 1009.2 - 0.0 - - 10 - - - -
20/12:30pm 31.9 E 12 16 1009.7 - 0.0 - - 10 - - - -
20/12:00pm 31.7 E 11 17 1010.0 - 0.0 - - 10 - - - -
20/11:30am 31.5 ENE 13 16 1010.5 - 0.0 - - 10 - - - -
20/11:00am 31.5 ENE 12 16 1010.9 - 0.0 - - 10 - - - -
20/10:30am 31.3 ESE 11 16 1011.1 - 0.0 - - 10 - - - -
20/10:00am 30.8 E 11 15 1011.5 - 0.0 - - 10 - - - -
20/09:30am 31.0 E 10 14 1011.5 - 0.0 - - 10 - - - -
20/09:00am 30.7 E 9 13 1011.5 R 0.0 Fine Mostly clear 40 - - - -
20/08:30am 30.1 E 10 14 1011.6 - 0.0 - Partly cloudy 10 - - - -
20/08:00am 29.2 E 5 9 1011.4 - 0.0 - Partly cloudy 10 - - - -
20/07:30am 27.4 NW 4 5 1011.1 - 0.0 - Partly cloudy 10 - - - -
20/07:00am 26.4 WNW 3 5 1011.0 - 0.0 - Partly cloudy 10 - - - -
20/06:30am 24.1 WNW 3 5 1010.7 - 0.0 - Partly cloudy 10 - - - -
20/06:00am 23.3 NW 4 5 1010.1 - 0.0 - - 10 - - - -
20/05:30am 23.6 CALM 0 0 1009.8 - 0.0 - - 10 - - - -
20/05:00am 24.0 CALM 0 3 1009.4 - 0.0 - - 10 - - - -
20/04:30am 24.8 ESE 1 4 1009.2 - 0.0 - Partly cloudy 10 - - - -
20/04:00am 24.7 NNW 3 4 1009.1 - 0.0 - Partly cloudy 10 - - - -
20/03:30am 24.8 CALM 0 0 1009.4 - 0.0 - Partly cloudy 10 - - - -
20/03:00am 24.5 CALM 0 0 1009.3 - 0.0 - Cloudy 10 - - - -
20/02:30am 24.1 NW 3 4 1009.7 - 0.0 - Partly cloudy 10 - - - -
20/02:00am 24.0 CALM 0 0 1009.7 - 0.0 - Partly cloudy 10 - - - -
20/01:30am 24.6 CALM 0 0 1009.8 - 0.0 - Partly cloudy 10 - - - -
20/01:00am 25.0 CALM 0 0 1010.1 - 0.0 - Partly cloudy 10 - - - -
20/12:30am 25.1 CALM 0 0 1010.8 - 0.0 - Partly cloudy 10 - - - -
20/12:00am 24.7 NW 4 4 1011.0 - 0.0 - Cloudy 10 - - - -
 
Date/Time
EST
Temp

°C
Wind Pressure Rain
since 9am
mm
Weather Cloud Vis
km
Sea
Height
m
Swell
Dir
 
Speed
knots
Gust
knots
hPa Trend Height
m
Period
s
Dir
19/11:30pm 24.4 CALM 0 0 1011.2 - 0.0 - Partly cloudy 10 - - - -
19/11:00pm 24.5 CALM 0 0 1011.3 - 0.0 - Partly cloudy 10 - - - -
19/10:30pm 24.2 CALM 0 0 1011.3 - 0.0 - Partly cloudy 10 - - - -
19/10:00pm 24.2 CALM 0 0 1011.0 - 0.0 - Partly cloudy 10 - - - -
19/09:30pm 24.6 CALM 0 0 1010.8 - 0.0 - Partly cloudy 10 - - - -

Other Formats:

Comma delimited format used in spreadsheet applications
http://www.bom.gov.au/fwo/IDQ60701/IDQ60701.95283.axf

JavaScript Object Notation format (JSON) in row-major order
http://www.bom.gov.au/fwo/IDQ60701/IDQ60701.95283.json